createdAt,value
2019-06-10T00:03:51.741Z,14.09
2019-06-10T00:06:22.518Z,14.05
2019-06-10T00:08:51.851Z,13.99
2019-06-10T00:14:58.728Z,13.93
2019-06-10T00:17:55.029Z,13.89
2019-06-10T00:20:59.807Z,13.81
2019-06-10T00:23:31.640Z,13.81
2019-06-10T00:26:41.337Z,13.68
2019-06-10T00:29:12.366Z,13.67
2019-06-10T00:32:21.617Z,13.62
2019-06-10T00:35:12.398Z,13.57
2019-06-10T00:37:43.686Z,13.54
2019-06-10T00:43:30.262Z,13.53
2019-06-10T00:46:00.720Z,13.50
2019-06-10T00:48:32.322Z,13.47
2019-06-10T00:51:04.137Z,13.52
2019-06-10T00:53:34.036Z,13.51
2019-06-10T00:56:42.918Z,13.49
2019-06-10T00:59:14.880Z,13.42
2019-06-10T01:01:43.522Z,13.29
2019-06-10T01:04:52.341Z,13.33
2019-06-10T01:07:22.572Z,13.35
2019-06-10T01:10:31.716Z,13.38
2019-06-10T01:13:05.084Z,13.38
2019-06-10T01:15:34.428Z,13.30
2019-06-10T01:18:03.794Z,13.31
2019-06-10T01:20:33.406Z,13.34
2019-06-10T01:23:02.929Z,13.43
2019-06-10T01:25:51.665Z,13.49
2019-06-10T01:28:22.005Z,13.54
2019-06-10T01:30:52.246Z,13.56
2019-06-10T01:33:21.839Z,13.53
2019-06-10T01:36:31.409Z,13.52
2019-06-10T01:39:02.149Z,13.48
2019-06-10T01:41:31.500Z,13.51
2019-06-10T01:44:01.727Z,13.47
2019-06-10T01:46:31.726Z,13.47
2019-06-10T01:49:03.269Z,13.44
2019-06-10T01:51:32.734Z,13.50
2019-06-10T01:54:02.155Z,13.50
2019-06-10T01:56:31.620Z,13.46
2019-06-10T01:59:01.592Z,13.54
2019-06-10T02:01:51.741Z,13.51
2019-06-10T02:05:01.602Z,13.51
2019-06-10T02:10:26.629Z,13.62
2019-06-10T02:12:56.031Z,13.71
2019-06-10T02:15:25.539Z,13.77
2019-06-10T02:17:54.968Z,13.80
2019-06-10T02:20:24.574Z,13.83
2019-06-10T02:22:54.141Z,13.90
2019-06-10T02:26:03.003Z,13.89
2019-06-10T02:28:34.846Z,13.90
2019-06-10T02:31:04.187Z,13.92
2019-06-10T02:34:17.611Z,13.97
2019-06-10T02:36:44.810Z,14.01
2019-06-10T02:44:37.635Z,14.25
2019-06-10T02:47:06.617Z,14.26
2019-06-10T02:52:37.221Z,14.33
2019-06-10T02:58:13.774Z,14.52
2019-06-10T03:00:48.607Z,14.62
2019-06-10T03:03:25.700Z,14.66
2019-06-10T03:05:47.637Z,14.68
2019-06-10T03:08:56.363Z,14.77
2019-06-10T03:11:27.937Z,14.89
2019-06-10T03:13:57.311Z,15.05
2019-06-10T03:16:45.720Z,15.14
2019-06-10T03:19:15.874Z,15.27
2019-06-10T03:21:46.931Z,15.40
2019-06-10T03:24:17.028Z,15.52
2019-06-10T03:26:47.855Z,15.57
2019-06-10T03:29:18.340Z,15.55
2019-06-10T03:31:48.795Z,15.61
2019-06-10T03:34:23.214Z,15.60
2019-06-10T03:36:53.514Z,15.60
2019-06-10T03:39:25.776Z,15.55
2019-06-10T03:44:56.885Z,15.39
2019-06-10T03:48:05.740Z,15.47
2019-06-10T03:50:47.076Z,15.51
2019-06-10T03:53:17.300Z,15.54
2019-06-10T03:55:47.660Z,15.55
2019-06-10T03:58:17.466Z,15.49
2019-06-10T04:00:58.820Z,15.52
2019-06-10T04:03:29.373Z,15.64
2019-06-10T04:06:02.274Z,15.79
2019-06-10T04:08:32.813Z,15.90
2019-06-10T04:11:02.968Z,16.03
2019-06-10T04:14:13.272Z,16.19
2019-06-10T04:16:43.331Z,16.06
2019-06-10T04:19:14.298Z,16.11
2019-06-10T04:22:24.937Z,16.08
2019-06-10T04:24:54.371Z,16.12
2019-06-10T04:27:25.360Z,16.18
2019-06-10T04:29:55.324Z,16.16
2019-06-10T04:33:04.216Z,16.18
2019-06-10T04:36:13.671Z,16.23
2019-06-10T04:38:44.470Z,16.28
2019-06-10T04:41:14.324Z,16.36
2019-06-10T04:46:38.888Z,16.40
2019-06-10T04:52:24.792Z,16.39
2019-06-10T04:54:54.055Z,16.44
2019-06-10T04:57:25.313Z,16.51
2019-06-10T05:02:32.846Z,16.76
2019-06-10T05:05:02.971Z,16.81
2019-06-10T05:08:13.152Z,16.94
2019-06-10T05:10:43.705Z,17.08
2019-06-10T05:16:30.826Z,17.39
2019-06-10T05:22:03.075Z,17.55
2019-06-10T05:25:12.851Z,17.51
2019-06-10T05:27:43.617Z,17.41
2019-06-10T05:33:23.079Z,17.76
2019-06-10T05:35:53.269Z,17.96
2019-06-10T05:38:23.949Z,18.22
2019-06-10T05:40:53.686Z,18.45
2019-06-10T05:43:24.755Z,18.49
2019-06-10T05:45:54.725Z,18.52
2019-06-10T05:51:35.205Z,18.59
2019-06-10T05:54:04.977Z,18.65
2019-06-10T05:56:35.745Z,18.73
2019-06-10T05:59:06.012Z,18.73
2019-06-10T06:04:50.269Z,18.96
2019-06-10T06:10:29.462Z,19.05
2019-06-10T06:13:00.137Z,18.92
2019-06-10T06:15:29.689Z,18.92
2019-06-10T06:18:07.198Z,18.96
2019-06-10T06:20:31.957Z,18.95
2019-06-10T06:23:02.756Z,18.87
2019-06-10T06:25:38.882Z,18.96
2019-06-10T06:28:04.098Z,18.88
2019-06-10T06:33:32.743Z,18.86
2019-06-10T06:36:03.392Z,18.75
2019-06-10T06:38:34.015Z,18.85
2019-06-10T06:44:13.832Z,18.96
2019-06-10T06:46:43.256Z,19.24
2019-06-10T06:49:12.993Z,19.34
2019-06-10T06:51:54.613Z,19.47
2019-06-10T06:54:15.565Z,19.41
2019-06-10T06:56:45.071Z,19.71
2019-06-10T06:59:14.457Z,20.08
2019-06-10T07:01:44.627Z,20.43
2019-06-10T07:04:14.194Z,20.61
2019-06-10T07:07:23.441Z,20.84
2019-06-10T07:16:08.252Z,20.38
2019-06-10T07:18:43.350Z,20.29
2019-06-10T07:21:09.338Z,20.52
2019-06-10T07:23:41.089Z,20.97
2019-06-10T07:26:12.613Z,20.95
2019-06-10T07:28:46.665Z,20.93
2019-06-10T07:33:53.228Z,21.30
2019-06-10T07:36:23.688Z,21.49
2019-06-10T07:38:54.601Z,21.17
2019-06-10T07:44:19.545Z,20.66
2019-06-10T07:46:48.907Z,20.71
2019-06-10T07:49:18.374Z,20.92
2019-06-10T07:52:27.967Z,21.38
2019-06-10T07:58:22.795Z,21.07
2019-06-10T08:00:53.437Z,21.45
2019-06-10T08:03:24.012Z,21.73
2019-06-10T08:05:53.558Z,21.12
2019-06-10T08:11:18.153Z,21.21
2019-06-10T08:13:48.066Z,21.48
2019-06-10T08:16:18.840Z,21.62
2019-06-10T08:19:16.089Z,21.64
2019-06-10T08:21:19.983Z,21.82
2019-06-10T08:23:49.361Z,21.53
2019-06-10T08:26:20.026Z,21.16
2019-06-10T08:29:28.881Z,21.15
2019-06-10T08:31:58.488Z,21.29
2019-06-10T08:37:44.802Z,22.19
2019-06-10T08:40:14.492Z,21.53
2019-06-10T08:43:24.258Z,21.67
2019-06-10T08:45:53.774Z,21.56
2019-06-10T08:48:23.729Z,22.07
2019-06-10T08:50:53.602Z,21.86
2019-06-10T08:53:23.323Z,21.31
2019-06-10T08:58:51.625Z,20.98
2019-06-10T09:04:35.487Z,21.09
2019-06-10T09:07:04.832Z,21.71
2019-06-10T09:13:09.221Z,22.10
2019-06-10T09:15:40.664Z,22.63
2019-06-10T09:18:13.966Z,22.44
2019-06-10T09:20:45.909Z,22.53
2019-06-10T09:23:21.921Z,22.34
2019-06-10T09:25:50.500Z,21.94
2019-06-10T09:28:17.329Z,21.94
2019-06-10T09:33:46.619Z,22.39
2019-06-10T09:36:13.674Z,22.19
2019-06-10T09:38:47.323Z,21.72
2019-06-10T09:42:01.484Z,21.56
2019-06-10T09:54:05.623Z,21.31
2019-06-10T09:59:46.370Z,21.57
2019-06-10T10:02:13.252Z,21.67
2019-06-10T10:05:23.386Z,21.46
2019-06-10T10:07:57.238Z,21.65
2019-06-10T10:11:04.593Z,21.97
2019-06-10T10:16:53.764Z,21.55
2019-06-10T10:19:38.978Z,21.65
2019-06-10T10:22:10.990Z,21.62
2019-06-10T10:24:42.483Z,21.64
2019-06-10T10:27:13.512Z,21.36
2019-06-10T10:29:45.271Z,21.84
2019-06-10T10:41:23.999Z,22.90
2019-06-10T10:43:57.806Z,22.93
2019-06-10T10:46:26.690Z,23.05
2019-06-10T10:48:56.620Z,22.73
2019-06-10T11:03:42.864Z,22.35
2019-06-10T11:06:12.877Z,22.27
2019-06-10T11:08:45.289Z,21.97
2019-06-10T11:17:33.645Z,22.28
2019-06-10T11:20:03.831Z,21.73
2019-06-10T11:22:33.353Z,21.95
2019-06-10T11:27:38.667Z,22.03
2019-06-10T11:33:04.789Z,22.56
2019-06-10T11:35:34.669Z,23.00
2019-06-10T11:38:43.552Z,22.82
2019-06-10T11:41:13.876Z,23.03
2019-06-10T11:43:43.354Z,22.19
2019-06-10T11:46:14.875Z,21.97
2019-06-10T11:48:44.950Z,21.82
2019-06-10T11:51:14.621Z,22.13
2019-06-10T11:53:44.518Z,22.49
2019-06-10T11:56:14.165Z,22.57
2019-06-10T11:58:43.688Z,22.66
2019-06-10T12:01:13.519Z,22.87
2019-06-10T12:03:45.121Z,22.92
2019-06-10T12:06:14.725Z,22.85
2019-06-10T12:12:02.288Z,22.76
2019-06-10T12:14:33.184Z,23.03
2019-06-10T12:17:21.886Z,23.09
2019-06-10T12:22:37.120Z,22.89
2019-06-10T12:25:32.421Z,23.01
2019-06-10T12:30:57.319Z,23.48
2019-06-10T12:33:25.480Z,23.98
2019-06-10T12:35:59.474Z,23.22
2019-06-10T12:38:26.860Z,22.69
2019-06-10T12:44:05.284Z,22.50
2019-06-10T12:49:43.829Z,23.11
2019-06-10T12:52:13.963Z,23.09
2019-06-10T12:54:43.474Z,23.15
2019-06-10T12:57:16.485Z,22.70
2019-06-10T13:03:03.793Z,22.75
2019-06-10T13:05:33.262Z,22.74
2019-06-10T13:08:43.104Z,23.20
2019-06-10T13:11:14.923Z,23.68
2019-06-10T13:13:45.369Z,23.75
2019-06-10T13:16:18.543Z,23.32
2019-06-10T13:18:48.060Z,23.61
2019-06-10T13:21:57.333Z,23.67
2019-06-10T13:24:26.817Z,23.13
2019-06-10T13:26:56.602Z,23.63
2019-06-10T13:30:05.455Z,24.70
2019-06-10T13:35:32.186Z,24.22
2019-06-10T13:38:04.147Z,23.77
2019-06-10T13:41:05.729Z,24.13
2019-06-10T13:43:35.724Z,24.38
2019-06-10T13:46:07.365Z,25.07
2019-06-10T13:48:37.019Z,24.99
2019-06-10T13:51:10.218Z,25.32
2019-06-10T13:53:37.601Z,23.92
2019-06-10T13:56:32.393Z,23.25
2019-06-10T14:01:53.391Z,23.14
2019-06-10T14:04:25.727Z,22.71
2019-06-10T14:06:57.267Z,22.41
2019-06-10T14:12:01.898Z,22.24
2019-06-10T14:14:33.312Z,21.79
2019-06-10T14:17:03.987Z,21.51
2019-06-10T14:19:34.794Z,21.74
2019-06-10T14:28:34.843Z,21.75
2019-06-10T14:30:46.541Z,21.40
2019-06-10T14:33:16.724Z,20.94
2019-06-10T14:35:46.170Z,20.89
2019-06-10T14:38:15.950Z,20.43
2019-06-10T14:40:45.432Z,20.44
2019-06-10T14:43:16.246Z,20.50
2019-06-10T14:45:46.152Z,20.38
2019-06-10T14:48:17.517Z,20.45
2019-06-10T14:50:46.662Z,20.38
2019-06-10T14:53:16.957Z,20.21
2019-06-10T14:55:47.443Z,20.16
2019-06-10T14:58:19.244Z,20.23
2019-06-10T15:00:49.258Z,20.25
2019-06-10T15:03:20.030Z,20.17
2019-06-10T15:05:52.673Z,20.13
2019-06-10T15:08:23.124Z,20.13
2019-06-10T15:10:53.779Z,20.12
2019-06-10T15:13:23.796Z,19.94
2019-06-10T15:15:53.501Z,19.93
2019-06-10T15:18:23.908Z,20.01
2019-06-10T15:20:53.726Z,19.62
2019-06-10T15:23:23.783Z,19.93
2019-06-10T15:25:56.890Z,19.27
2019-06-10T15:28:24.269Z,19.84
2019-06-10T15:30:53.799Z,19.79
2019-06-10T15:33:23.981Z,19.66
2019-06-10T15:35:54.500Z,19.51
2019-06-10T15:38:24.031Z,19.53
2019-06-10T15:41:32.715Z,19.54
2019-06-10T15:47:03.953Z,19.30
2019-06-10T15:49:33.426Z,19.23
2019-06-10T15:52:03.355Z,19.19
2019-06-10T15:54:33.474Z,19.18
2019-06-10T15:57:45.644Z,19.02
2019-06-10T16:03:08.909Z,18.89
2019-06-10T16:05:38.372Z,18.80
2019-06-10T16:08:07.863Z,18.73
2019-06-10T16:11:18.926Z,18.78
2019-06-10T16:13:49.190Z,18.81
2019-06-10T16:16:18.989Z,18.71
2019-06-10T16:18:49.816Z,18.68
2019-06-10T16:21:20.405Z,18.70
2019-06-10T16:23:53.150Z,18.65
2019-06-10T16:26:25.238Z,18.63
2019-06-10T16:28:52.634Z,18.60
2019-06-10T16:31:25.606Z,18.59
2019-06-10T16:33:53.676Z,18.58
2019-06-10T16:36:25.887Z,18.55
2019-06-10T16:38:54.638Z,18.56
2019-06-10T16:42:03.421Z,18.50
2019-06-10T16:44:33.144Z,18.50
2019-06-10T16:47:05.014Z,18.38
2019-06-10T16:49:34.483Z,18.43
2019-06-10T16:52:25.639Z,18.59
2019-06-10T16:54:54.805Z,18.71
2019-06-10T16:57:25.585Z,18.76
2019-06-10T16:59:55.471Z,18.75
2019-06-10T17:02:25.457Z,18.64
2019-06-10T17:04:58.393Z,18.57
2019-06-10T17:07:29.074Z,18.45
2019-06-10T17:09:58.641Z,18.41
2019-06-10T17:15:42.839Z,18.49
2019-06-10T17:18:13.068Z,18.47
2019-06-10T17:21:04.079Z,18.57
2019-06-10T17:23:36.615Z,18.52
2019-06-10T17:26:05.576Z,18.56
2019-06-10T17:28:37.008Z,18.47
2019-06-10T17:34:02.808Z,18.44
2019-06-10T17:36:35.131Z,18.46
2019-06-10T17:41:59.691Z,18.42
2019-06-10T17:44:30.781Z,18.25
2019-06-10T17:47:02.300Z,18.23
2019-06-10T17:49:34.694Z,18.17
2019-06-10T17:55:19.338Z,18.11
2019-06-10T17:57:49.359Z,18.15
2019-06-10T18:03:14.543Z,18.18
2019-06-10T18:11:35.821Z,17.99
2019-06-10T18:17:06.678Z,18.00
2019-06-10T18:19:37.483Z,18.03
2019-06-10T18:22:07.740Z,17.97
2019-06-10T18:24:37.208Z,18.00
2019-06-10T18:27:06.759Z,17.99
2019-06-10T18:29:37.312Z,17.93
2019-06-10T18:32:06.838Z,17.81
2019-06-10T18:34:38.012Z,17.68
2019-06-10T18:37:07.891Z,17.62
2019-06-10T18:39:37.377Z,17.53
2019-06-10T18:42:06.898Z,17.46
2019-06-10T18:44:37.530Z,17.26
2019-06-10T18:47:07.353Z,17.17
2019-06-10T18:49:37.539Z,16.64
2019-06-10T18:52:07.110Z,16.96
2019-06-10T18:55:15.945Z,16.83
2019-06-10T19:03:37.575Z,16.44
2019-06-10T19:06:06.492Z,16.34
2019-06-10T19:11:50.504Z,16.35
2019-06-10T19:14:20.109Z,16.33
2019-06-10T19:17:30.394Z,16.32
2019-06-10T19:20:03.757Z,16.28
2019-06-10T19:22:34.069Z,15.69
2019-06-10T19:25:06.357Z,16.17
2019-06-10T19:27:36.878Z,16.16
2019-06-10T19:30:07.477Z,16.09
2019-06-10T19:32:38.315Z,16.07
2019-06-10T19:35:09.015Z,16.05
2019-06-10T19:38:17.967Z,15.95
2019-06-10T19:43:40.663Z,15.82
2019-06-10T19:46:12.849Z,15.75
2019-06-10T19:51:37.396Z,15.69
2019-06-10T19:54:47.248Z,15.56
2019-06-10T19:57:17.848Z,15.51
2019-06-10T20:00:26.541Z,15.43
2019-06-10T20:06:06.001Z,15.42
2019-06-10T20:08:56.300Z,15.33
2019-06-10T20:12:05.232Z,15.27
2019-06-10T20:17:30.125Z,15.18
2019-06-10T20:23:08.964Z,15.12
2019-06-10T20:25:41.020Z,15.11
2019-06-10T20:28:10.504Z,15.09
2019-06-10T20:30:43.339Z,15.08
2019-06-10T20:38:57.604Z,14.90
2019-06-10T20:44:36.094Z,14.90
2019-06-10T20:47:05.845Z,14.86
2019-06-10T20:49:35.203Z,14.83
2019-06-10T20:52:11.141Z,14.83
2019-06-10T20:54:36.433Z,14.87
2019-06-10T20:57:05.843Z,14.87
2019-06-10T20:59:35.575Z,14.82
2019-06-10T21:02:05.110Z,14.77
2019-06-10T21:04:35.465Z,14.64
2019-06-10T21:07:05.094Z,14.40
2019-06-10T21:09:35.035Z,14.14
2019-06-10T21:12:04.494Z,13.98
2019-06-10T21:14:33.946Z,13.96
2019-06-10T21:17:03.652Z,13.85
2019-06-10T21:20:12.665Z,13.70
2019-06-10T21:22:44.288Z,13.68
2019-06-10T21:25:14.627Z,13.58
2019-06-10T21:27:46.315Z,13.53
2019-06-10T21:30:15.917Z,13.44
2019-06-10T21:32:47.013Z,13.37
2019-06-10T21:35:17.462Z,13.26
2019-06-10T21:43:41.322Z,13.05
2019-06-10T21:49:18.527Z,12.97
2019-06-10T21:51:49.945Z,12.86
2019-06-10T21:54:19.571Z,12.80
2019-06-10T21:56:49.049Z,12.72
2019-06-10T21:59:18.492Z,12.69
2019-06-10T22:01:49.116Z,12.67
2019-06-10T22:04:19.445Z,12.65
2019-06-10T22:09:45.624Z,12.62
2019-06-10T22:12:28.013Z,12.58
2019-06-10T22:17:55.924Z,12.50
2019-06-10T22:23:27.554Z,12.53
2019-06-10T22:26:36.161Z,12.57
2019-06-10T22:29:45.124Z,12.54
2019-06-10T22:32:16.957Z,12.58
2019-06-10T22:35:25.635Z,12.60
2019-06-10T22:40:57.089Z,12.70
2019-06-10T22:43:39.173Z,12.72
2019-06-10T22:46:22.973Z,12.68
2019-06-10T22:51:56.475Z,12.60
2019-06-10T22:54:24.946Z,12.55
2019-06-10T22:56:56.771Z,12.60
2019-06-10T22:59:25.425Z,12.61
2019-06-10T23:01:56.536Z,12.63
2019-06-10T23:04:26.371Z,12.67
2019-06-10T23:07:35.308Z,12.69
2019-06-10T23:13:19.621Z,12.75
2019-06-10T23:16:28.258Z,12.75
2019-06-10T23:22:03.670Z,12.67
2019-06-10T23:27:13.192Z,12.53
2019-06-10T23:29:43.948Z,12.49
2019-06-10T23:32:13.330Z,12.51
2019-06-10T23:34:42.771Z,12.55
2019-06-10T23:37:12.552Z,12.42
2019-06-10T23:39:43.725Z,12.42
2019-06-10T23:45:04.903Z,12.44
2019-06-10T23:50:34.833Z,12.45
2019-06-10T23:53:23.435Z,12.33
2019-06-10T23:55:54.638Z,12.27
2019-06-10T23:58:25.337Z,12.23
